createdAt,value
2018-12-11T00:00:21.461Z,8.3
2018-12-11T00:01:20.037Z,8.33
2018-12-11T00:02:18.586Z,8.3
2018-12-11T00:03:17.418Z,8.28
2018-12-11T00:04:16.076Z,8.15
2018-12-11T00:05:14.632Z,8.12
2018-12-11T00:06:13.120Z,8.12
2018-12-11T00:07:11.771Z,8.16
2018-12-11T00:08:10.300Z,8.11
2018-12-11T00:09:08.858Z,8.04
2018-12-11T00:10:08.250Z,8.11
2018-12-11T00:11:06.792Z,7.98
2018-12-11T00:12:05.300Z,7.93
2018-12-11T00:13:03.835Z,7.9
2018-12-11T00:14:02.407Z,7.92
2018-12-11T00:15:01.048Z,7.85
2018-12-11T00:15:59.946Z,7.72
2018-12-11T00:16:58.481Z,7.68
2018-12-11T00:17:57.134Z,7.55
2018-12-11T00:18:55.823Z,7.61
2018-12-11T00:19:54.367Z,7.67
2018-12-11T00:22:34.810Z,7.61
2018-12-11T00:23:33.649Z,7.6
2018-12-11T00:24:32.200Z,7.5
2018-12-11T00:25:30.810Z,7.63
2018-12-11T00:26:29.380Z,7.58
2018-12-11T00:27:27.934Z,7.72
2018-12-11T00:28:26.476Z,7.74
2018-12-11T00:29:25.003Z,7.79
2018-12-11T00:30:23.607Z,7.69
2018-12-11T00:31:22.170Z,7.69
2018-12-11T00:32:20.701Z,7.8
2018-12-11T00:33:19.387Z,7.85
2018-12-11T00:35:28.321Z,7.85
2018-12-11T00:36:27.122Z,7.93
2018-12-11T00:37:25.697Z,7.89
2018-12-11T00:38:24.300Z,7.95
2018-12-11T00:39:22.890Z,7.64
2018-12-11T00:40:21.442Z,7.8
2018-12-11T00:41:19.974Z,7.9
2018-12-11T00:42:18.518Z,7.89
2018-12-11T00:44:16.033Z,7.87
2018-12-11T00:45:14.575Z,7.93
2018-12-11T00:46:13.219Z,7.85
2018-12-11T00:47:11.864Z,7.89
2018-12-11T00:48:10.406Z,7.97
2018-12-11T00:49:08.958Z,8.02
2018-12-11T00:50:07.505Z,7.98
2018-12-11T00:51:06.070Z,7.9
2018-12-11T00:52:04.690Z,7.9
2018-12-11T00:53:03.387Z,7.85
2018-12-11T00:54:02.086Z,7.86
2018-12-11T00:55:00.652Z,7.86
2018-12-11T00:55:59.398Z,7.86
2018-12-11T00:56:57.929Z,7.89
2018-12-11T00:58:42.398Z,7.98
2018-12-11T00:59:40.935Z,7.95
2018-12-11T01:02:21.266Z,7.87
2018-12-11T01:03:20.064Z,7.9
2018-12-11T01:04:18.567Z,7.89
2018-12-11T01:05:17.221Z,7.95
2018-12-11T01:06:16.023Z,7.98
2018-12-11T01:07:14.608Z,8
2018-12-11T01:08:13.318Z,8.05
2018-12-11T01:09:11.972Z,8.1
2018-12-11T01:10:10.498Z,7.92
2018-12-11T01:11:09.304Z,7.97
2018-12-11T01:12:07.979Z,8.1
2018-12-11T01:13:06.541Z,8.11
2018-12-11T01:14:05.035Z,8.05
2018-12-11T01:15:03.613Z,8.04
2018-12-11T01:16:02.154Z,7.93
2018-12-11T01:17:00.719Z,8.04
2018-12-11T01:17:59.365Z,8.01
2018-12-11T01:18:57.900Z,7.89
2018-12-11T01:19:56.445Z,8.07
2018-12-11T01:20:55.064Z,8.07
2018-12-11T01:21:53.859Z,8.1
2018-12-11T01:22:52.410Z,8.01
2018-12-11T01:23:51.060Z,8.05
2018-12-11T01:24:49.708Z,8.05
2018-12-11T01:25:48.227Z,7.98
2018-12-11T01:26:46.795Z,8.04
2018-12-11T01:27:45.367Z,8.02
2018-12-11T01:28:43.883Z,7.87
2018-12-11T01:29:42.448Z,7.97
2018-12-11T01:30:41.126Z,8.07
2018-12-11T01:31:39.784Z,7.9
2018-12-11T01:32:38.341Z,7.89
2018-12-11T01:33:36.898Z,7.95
2018-12-11T01:34:35.823Z,8.01
2018-12-11T01:35:34.366Z,8.02
2018-12-11T01:36:32.928Z,7.93
2018-12-11T01:37:31.505Z,8.05
2018-12-11T01:38:30.015Z,8.1
2018-12-11T01:39:28.568Z,8
2018-12-11T01:40:27.094Z,8.07
2018-12-11T01:41:25.646Z,8.19
2018-12-11T01:42:24.173Z,8.07
2018-12-11T01:43:22.724Z,8.16
2018-12-11T01:44:21.429Z,8
2018-12-11T01:45:20.226Z,8.02
2018-12-11T01:46:18.784Z,8.11
2018-12-11T01:47:18.270Z,8.18
2018-12-11T01:48:16.812Z,8.18
2018-12-11T01:49:15.487Z,8.07
2018-12-11T01:50:14.196Z,8.07
2018-12-11T01:51:12.753Z,8.1
2018-12-11T01:52:11.501Z,8.1
2018-12-11T01:53:10.278Z,8.08
2018-12-11T01:54:09.000Z,7.97
2018-12-11T01:55:07.701Z,7.89
2018-12-11T01:56:06.237Z,8.01
2018-12-11T01:57:04.843Z,8
2018-12-11T01:58:03.445Z,8.05
2018-12-11T01:59:01.981Z,8.04
2018-12-11T02:00:00.536Z,8.2
2018-12-11T02:00:59.189Z,8.1
2018-12-11T02:01:58.059Z,8.05
2018-12-11T02:02:56.608Z,8.05
2018-12-11T02:03:55.342Z,7.97
2018-12-11T02:04:53.908Z,7.87
2018-12-11T02:05:52.458Z,7.89
2018-12-11T02:07:35.965Z,7.95
2018-12-11T02:08:34.498Z,7.93
2018-12-11T02:09:33.152Z,8.04
2018-12-11T02:10:31.990Z,8.08
2018-12-11T02:11:30.526Z,7.98
2018-12-11T02:12:29.305Z,8.12
2018-12-11T02:13:27.863Z,8
2018-12-11T02:14:26.391Z,8
2018-12-11T02:15:24.962Z,8.07
2018-12-11T02:16:23.479Z,8.07
2018-12-11T02:17:22.108Z,8.18
2018-12-11T02:18:20.646Z,8.15
2018-12-11T02:19:19.310Z,8.1
2018-12-11T02:20:18.008Z,8
2018-12-11T02:21:16.567Z,8.01
2018-12-11T02:22:15.258Z,8.02
2018-12-11T02:23:13.974Z,8.04
2018-12-11T02:24:12.492Z,8.11
2018-12-11T02:25:11.070Z,8.01
2018-12-11T02:26:09.616Z,8.02
2018-12-11T02:27:08.175Z,8
2018-12-11T02:28:06.718Z,7.98
2018-12-11T02:29:05.227Z,7.82
2018-12-11T02:30:03.786Z,7.8
2018-12-11T02:31:02.310Z,7.71
2018-12-11T02:32:00.830Z,7.63
2018-12-11T02:32:59.410Z,7.75
2018-12-11T02:33:57.922Z,7.71
2018-12-11T02:34:56.473Z,7.74
2018-12-11T02:35:55.204Z,7.64
2018-12-11T02:36:53.942Z,7.58
2018-12-11T02:37:52.499Z,7.5
2018-12-11T02:38:51.141Z,7.55
2018-12-11T02:39:49.775Z,7.53
2018-12-11T02:40:48.314Z,7.45
2018-12-11T02:41:46.831Z,7.64
2018-12-11T02:42:45.381Z,7.68
2018-12-11T02:43:43.975Z,7.72
2018-12-11T02:44:42.523Z,7.6
2018-12-11T02:45:41.274Z,7.58
2018-12-11T02:46:40.052Z,7.48
2018-12-11T02:47:38.585Z,7.52
2018-12-11T02:48:37.192Z,7.63
2018-12-11T02:49:35.983Z,7.67
2018-12-11T02:50:34.508Z,7.64
2018-12-11T02:51:33.034Z,7.55
2018-12-11T02:52:32.114Z,7.43
2018-12-11T02:53:30.643Z,7.42
2018-12-11T02:54:29.335Z,7.52
2018-12-11T02:55:28.246Z,7.52
2018-12-11T02:56:26.795Z,7.43
2018-12-11T02:57:25.483Z,7.57
2018-12-11T02:58:24.084Z,7.48
2018-12-11T02:59:22.648Z,7.53
2018-12-11T03:00:21.517Z,7.42
2018-12-11T03:01:20.102Z,7.4
2018-12-11T03:02:18.636Z,7.42
2018-12-11T03:03:17.163Z,7.53
2018-12-11T03:04:15.728Z,7.63
2018-12-11T03:05:14.286Z,7.71
2018-12-11T03:06:12.815Z,7.67
2018-12-11T03:07:11.359Z,7.71
2018-12-11T03:08:09.947Z,7.75
2018-12-11T03:10:50.246Z,8.02
2018-12-11T03:11:48.814Z,8
2018-12-11T03:12:47.568Z,8.05
2018-12-11T03:13:46.113Z,7.97
2018-12-11T03:14:44.662Z,7.82
2018-12-11T03:15:43.275Z,7.74
2018-12-11T03:16:41.849Z,7.74
2018-12-11T03:17:40.457Z,7.63
2018-12-11T03:18:39.019Z,7.52
2018-12-11T03:19:37.612Z,7.64
2018-12-11T03:20:36.223Z,7.67
2018-12-11T03:21:34.796Z,7.79
2018-12-11T03:22:33.687Z,7.71
2018-12-11T03:25:55.152Z,7.52
2018-12-11T03:26:53.956Z,7.68
2018-12-11T03:27:52.548Z,7.52
2018-12-11T03:28:51.195Z,7.43
2018-12-11T03:31:31.668Z,7.58
2018-12-11T03:32:30.285Z,7.75
2018-12-11T03:33:28.837Z,7.83
2018-12-11T03:34:27.589Z,7.87
2018-12-11T03:35:26.190Z,7.75
2018-12-11T03:36:24.742Z,7.58
2018-12-11T03:37:23.314Z,7.69
2018-12-11T03:38:21.886Z,7.75
2018-12-11T03:39:20.459Z,7.85
2018-12-11T03:40:19.020Z,7.92
2018-12-11T03:41:17.539Z,7.95
2018-12-11T03:42:16.090Z,7.8
2018-12-11T03:43:14.628Z,7.72
2018-12-11T03:44:13.272Z,7.8
2018-12-11T03:45:11.924Z,7.72
2018-12-11T03:46:10.489Z,7.72
2018-12-11T03:47:09.329Z,7.61
2018-12-11T03:48:07.989Z,7.53
2018-12-11T03:49:06.542Z,7.55
2018-12-11T03:50:05.167Z,7.57
2018-12-11T03:51:04.083Z,7.71
2018-12-11T03:52:02.592Z,7.71
2018-12-11T03:53:01.367Z,7.71
2018-12-11T03:55:10.016Z,7.87
2018-12-11T03:56:08.553Z,7.82
2018-12-11T03:57:07.223Z,7.68
2018-12-11T03:58:05.925Z,7.64
2018-12-11T03:59:04.473Z,7.69
2018-12-11T04:00:03.217Z,7.72
2018-12-11T04:01:02.177Z,7.71
2018-12-11T04:02:00.740Z,7.72
2018-12-11T04:02:59.380Z,7.69
2018-12-11T04:03:57.955Z,7.68
2018-12-11T04:04:56.468Z,7.68
2018-12-11T04:05:55.011Z,7.8
2018-12-11T04:06:53.539Z,7.64
2018-12-11T04:07:52.059Z,7.52
2018-12-11T04:08:50.619Z,7.6
2018-12-11T04:09:49.146Z,7.55
2018-12-11T04:10:47.690Z,7.55
2018-12-11T04:11:46.275Z,7.55
2018-12-11T04:12:44.807Z,7.57
2018-12-11T04:13:43.522Z,7.39
2018-12-11T04:14:42.251Z,7.42
2018-12-11T04:15:40.883Z,7.27
2018-12-11T04:16:39.656Z,7.34
2018-12-11T04:17:38.191Z,7.27
2018-12-11T04:18:36.815Z,7.2
2018-12-11T04:19:35.354Z,7.07
2018-12-11T04:20:33.896Z,7.02
2018-12-11T04:21:32.402Z,7.03
2018-12-11T04:22:31.167Z,7.09
2018-12-11T04:23:29.995Z,7.13
2018-12-11T04:24:28.554Z,7.24
2018-12-11T04:25:27.316Z,7.3
2018-12-11T04:26:25.916Z,7.4
2018-12-11T04:29:10.025Z,7.13
2018-12-11T04:30:11.272Z,7.3
2018-12-11T04:31:09.903Z,7.32
2018-12-11T04:32:08.513Z,7.34
2018-12-11T04:33:07.019Z,7.39
2018-12-11T04:34:05.855Z,7.35
2018-12-11T04:35:04.423Z,7.32
2018-12-11T04:36:03.095Z,7.28
2018-12-11T04:37:01.731Z,7.3
2018-12-11T04:38:00.308Z,7.43
2018-12-11T04:38:58.842Z,7.45
2018-12-11T04:39:57.540Z,7.28
2018-12-11T04:40:56.092Z,7.32
2018-12-11T04:41:54.603Z,7.15
2018-12-11T04:42:53.342Z,7.16
2018-12-11T04:43:51.998Z,7.07
2018-12-11T04:44:50.511Z,7.2
2018-12-11T04:45:49.176Z,6.99
2018-12-11T04:46:47.928Z,6.92
2018-12-11T04:47:46.483Z,6.89
2018-12-11T04:48:45.026Z,6.88
2018-12-11T04:49:43.904Z,6.88
2018-12-11T04:50:42.461Z,6.92
2018-12-11T04:51:41.014Z,6.95
2018-12-11T04:52:39.809Z,6.98
2018-12-11T04:53:38.361Z,6.87
2018-12-11T04:54:36.922Z,7.07
2018-12-11T04:56:59.846Z,7.24
2018-12-11T04:57:58.385Z,7.17
2018-12-11T04:58:56.921Z,7.13
2018-12-11T04:59:55.751Z,7.17
2018-12-11T05:00:54.337Z,7.17
2018-12-11T05:01:52.908Z,7.23
2018-12-11T05:02:51.512Z,7.21
2018-12-11T05:03:50.156Z,7.17
2018-12-11T05:04:48.663Z,7.17
2018-12-11T05:05:47.406Z,7.1
2018-12-11T05:06:46.106Z,7.12
2018-12-11T05:07:44.640Z,7.16
2018-12-11T05:08:43.453Z,7.21
2018-12-11T05:09:42.110Z,7.23
2018-12-11T05:10:40.700Z,7.07
2018-12-11T05:11:39.216Z,7.16
2018-12-11T05:12:37.766Z,7.16
2018-12-11T05:13:36.394Z,7.09
2018-12-11T05:14:34.944Z,7.02
2018-12-11T05:15:33.543Z,7.1
2018-12-11T05:16:32.227Z,6.99
2018-12-11T05:19:12.564Z,7.02
2018-12-11T05:20:11.085Z,6.98
2018-12-11T05:21:09.683Z,7.09
2018-12-11T05:22:08.297Z,6.99
2018-12-11T05:23:06.846Z,6.8
2018-12-11T05:24:05.573Z,6.87
2018-12-11T05:25:04.461Z,6.85
2018-12-11T05:26:03.056Z,6.67
2018-12-11T05:27:01.734Z,6.84
2018-12-11T05:46:23.144Z,6.77
2018-12-11T05:47:21.952Z,6.84
2018-12-11T05:48:20.465Z,6.84
2018-12-11T05:49:19.050Z,6.7
2018-12-11T05:50:17.600Z,6.62
2018-12-11T05:51:16.207Z,6.69
2018-12-11T05:52:14.697Z,6.79
2018-12-11T05:55:53.790Z,6.55
2018-12-11T05:58:34.063Z,6.73
2018-12-11T05:59:34.403Z,6.71
2018-12-11T06:00:32.967Z,6.74
2018-12-11T06:01:31.667Z,6.79
2018-12-11T06:02:30.304Z,6.62
2018-12-11T06:03:28.868Z,6.64
2018-12-11T06:04:27.719Z,6.74
2018-12-11T06:05:26.279Z,6.58
2018-12-11T06:06:24.805Z,6.56
2018-12-11T06:07:23.457Z,6.52
2018-12-11T06:08:29.207Z,6.59
2018-12-11T06:09:28.025Z,6.66
2018-12-11T06:10:26.574Z,6.56
2018-12-11T06:11:25.206Z,6.52
2018-12-11T06:12:23.851Z,6.52
2018-12-11T06:13:22.416Z,6.43
2018-12-11T06:14:20.962Z,6.38
2018-12-11T06:15:19.510Z,6.41
2018-12-11T06:16:18.065Z,6.4
2018-12-11T06:17:16.625Z,6.44
2018-12-11T06:18:15.279Z,6.34
2018-12-11T06:19:13.896Z,6.37
2018-12-11T06:20:12.439Z,6.41
2018-12-11T06:21:11.013Z,6.38
2018-12-11T06:22:09.821Z,6.37
2018-12-11T06:23:08.335Z,6.43
2018-12-11T06:24:06.943Z,6.43
2018-12-11T06:25:05.549Z,6.31
2018-12-11T06:26:04.104Z,6.4
2018-12-11T06:27:02.640Z,6.49
2018-12-11T06:28:01.417Z,6.55
2018-12-11T06:29:00.136Z,6.61
2018-12-11T06:29:58.679Z,6.56
2018-12-11T06:30:57.485Z,6.66
2018-12-11T06:31:56.190Z,6.66
2018-12-11T06:32:54.782Z,6.46
2018-12-11T06:33:53.320Z,6.44
2018-12-11T06:34:51.892Z,6.49
2018-12-11T06:35:50.461Z,6.59
2018-12-11T06:36:49.176Z,6.67
2018-12-11T06:37:47.933Z,6.7
2018-12-11T06:38:46.482Z,6.7
2018-12-11T06:39:45.131Z,6.58
2018-12-11T06:40:43.841Z,6.56
2018-12-11T06:41:42.393Z,6.7
2018-12-11T06:42:40.938Z,6.77
2018-12-11T06:43:40.038Z,6.87
2018-12-11T06:44:38.438Z,6.98
2018-12-11T06:45:37.265Z,6.89
2018-12-11T06:46:35.887Z,6.87
2018-12-11T06:47:34.449Z,6.99
2018-12-11T06:48:33.000Z,6.77
2018-12-11T06:49:31.537Z,6.77
2018-12-11T06:50:30.087Z,6.87
2018-12-11T06:51:28.628Z,6.8
2018-12-11T06:52:27.174Z,6.89
2018-12-11T06:53:25.837Z,6.95
2018-12-11T06:54:24.399Z,6.85
2018-12-11T06:55:22.906Z,6.81
2018-12-11T06:56:21.879Z,6.64
2018-12-11T06:57:20.384Z,6.69
2018-12-11T06:58:18.870Z,6.52
2018-12-11T06:59:17.602Z,6.56
2018-12-11T07:00:16.152Z,6.58
2018-12-11T07:01:14.662Z,6.58
2018-12-11T07:02:13.175Z,6.58
2018-12-11T07:03:11.732Z,6.64
2018-12-11T07:04:10.261Z,6.76
2018-12-11T07:05:08.806Z,6.61
2018-12-11T07:06:07.334Z,6.69
2018-12-11T07:07:05.884Z,6.67
2018-12-11T07:08:04.453Z,6.99
2018-12-11T07:09:03.114Z,7.21
2018-12-11T07:10:01.976Z,7.5
2018-12-11T07:11:00.544Z,7.58
2018-12-11T07:11:59.173Z,7.87
2018-12-11T07:12:57.874Z,7.92
2018-12-11T07:13:56.481Z,7.6
2018-12-11T07:14:55.140Z,7.4
2018-12-11T07:15:53.839Z,7.21
2018-12-11T07:16:52.370Z,7.2
2018-12-11T07:17:50.956Z,7.31
2018-12-11T07:18:49.843Z,7.74
2018-12-11T07:19:48.386Z,8.23
2018-12-11T07:20:46.954Z,8.28
2018-12-11T07:21:45.514Z,9.31
2018-12-11T07:22:44.066Z,8.38
2018-12-11T07:23:42.607Z,8.05
2018-12-11T07:24:43.302Z,7.85
2018-12-11T07:25:42.035Z,7.71
2018-12-11T07:26:40.626Z,7.55
2018-12-11T07:27:39.318Z,7.42
2018-12-11T07:28:38.022Z,7.46
2018-12-11T07:29:36.570Z,7.45
2018-12-11T07:30:35.127Z,7.86
2018-12-11T07:31:33.684Z,8.08
2018-12-11T07:32:32.216Z,7.93
2018-12-11T07:33:30.788Z,7.75
2018-12-11T07:34:29.501Z,7.53
2018-12-11T07:35:28.230Z,7.45
2018-12-11T07:36:26.765Z,7.48
2018-12-11T07:37:25.483Z,7.32
2018-12-11T07:38:24.389Z,7.34
2018-12-11T07:39:22.888Z,7.16
2018-12-11T07:40:21.598Z,7.27
2018-12-11T07:41:20.293Z,7.34
2018-12-11T07:42:18.844Z,7.21
2018-12-11T07:43:17.663Z,7.13
2018-12-11T07:44:16.224Z,7.25
2018-12-11T07:45:14.766Z,7.39
2018-12-11T07:46:13.291Z,7.57
2018-12-11T07:47:11.867Z,7.63
2018-12-11T07:48:10.399Z,7.55
2018-12-11T07:49:08.931Z,7.64
2018-12-11T07:50:07.483Z,7.74
2018-12-11T07:51:06.009Z,7.74
2018-12-11T07:52:04.553Z,7.8
2018-12-11T07:53:06.375Z,7.75
2018-12-11T07:54:02.683Z,7.75
2018-12-11T07:55:01.321Z,7.95
2018-12-11T07:56:00.477Z,8.11
2018-12-11T07:56:58.701Z,8.52
2018-12-11T07:57:57.410Z,8.56
2018-12-11T07:58:56.058Z,8.25
2018-12-11T07:59:54.595Z,8.66
2018-12-11T08:00:53.122Z,8.26
2018-12-11T08:01:51.826Z,7.98
2018-12-11T08:02:50.446Z,7.93
2018-12-11T08:03:48.984Z,7.89
2018-12-11T08:04:47.945Z,7.69
2018-12-11T08:05:46.492Z,8.58
2018-12-11T08:06:45.040Z,9.13
2018-12-11T08:07:43.583Z,9.84
2018-12-11T08:08:42.204Z,9.54
2018-12-11T08:09:40.783Z,8.66
2018-12-11T08:10:39.318Z,8.19
2018-12-11T08:11:37.897Z,8.08
2018-12-11T08:12:36.427Z,7.98
2018-12-11T08:13:35.046Z,7.83
2018-12-11T08:14:33.989Z,7.82
2018-12-11T08:15:32.530Z,7.79
2018-12-11T08:16:31.132Z,7.85
2018-12-11T08:17:29.821Z,8.05
2018-12-11T08:18:28.352Z,7.89
2018-12-11T08:19:26.912Z,7.85
2018-12-11T08:20:25.790Z,7.9
2018-12-11T08:21:24.583Z,8.12
2018-12-11T08:22:23.199Z,8.11
2018-12-11T08:23:21.803Z,8.05
2018-12-11T08:24:20.312Z,8.43
2018-12-11T08:25:18.876Z,8.33
2018-12-11T08:26:17.498Z,8.29
2018-12-11T08:27:16.053Z,8.1
2018-12-11T08:29:56.441Z,8.07
2018-12-11T08:30:55.173Z,8.15
2018-12-11T08:31:53.800Z,8.26
2018-12-11T08:32:52.345Z,8.26
2018-12-11T08:33:50.882Z,8.22
2018-12-11T08:34:49.560Z,8.29
2018-12-11T08:35:48.166Z,8.89
2018-12-11T08:36:46.840Z,9.21
2018-12-11T08:37:45.755Z,8.92
2018-12-11T08:38:44.293Z,9.4
2018-12-11T08:39:42.833Z,8.89
2018-12-11T08:40:41.509Z,8.73
2018-12-11T08:41:40.098Z,8.63
2018-12-11T08:42:38.631Z,8.68
2018-12-11T08:43:37.181Z,8.68
2018-12-11T08:44:35.737Z,8.92
2018-12-11T08:45:34.343Z,9.26
2018-12-11T08:46:32.979Z,8.99
2018-12-11T08:47:31.759Z,9.08
2018-12-11T08:48:30.327Z,8.99
2018-12-11T08:49:28.926Z,9.39
2018-12-11T08:50:27.583Z,9.2
2018-12-11T08:51:26.229Z,8.99
2018-12-11T08:52:24.778Z,8.91
2018-12-11T08:53:23.452Z,8.84
2018-12-11T08:54:21.990Z,8.98
2018-12-11T08:55:20.559Z,8.87
2018-12-11T08:56:19.227Z,9.35
2018-12-11T08:57:18.128Z,10.02
2018-12-11T08:58:16.679Z,10.27
2018-12-11T08:59:15.255Z,10.38
2018-12-11T09:00:13.866Z,10.2
2018-12-11T09:01:12.438Z,9.93
2018-12-11T09:02:10.973Z,10.04
2018-12-11T09:03:09.520Z,10.01
2018-12-11T09:04:08.060Z,9.9
2018-12-11T09:05:06.679Z,9.94
2018-12-11T09:06:05.338Z,10.07
2018-12-11T09:07:04.213Z,9.97
2018-12-11T09:08:02.738Z,10.26
2018-12-11T09:09:01.380Z,10.73
2018-12-11T09:10:00.020Z,10.78
2018-12-11T09:10:58.549Z,10.89
2018-12-11T09:11:57.101Z,11.04
2018-12-11T09:12:55.657Z,11.19
2018-12-11T09:13:54.205Z,11
2018-12-11T09:14:52.770Z,10.63
2018-12-11T09:15:51.327Z,10.74
2018-12-11T09:16:50.042Z,10.74
2018-12-11T09:17:48.592Z,10.52
2018-12-11T09:18:47.119Z,10.52
2018-12-11T09:19:45.871Z,10.47
2018-12-11T09:20:44.403Z,10.6
2018-12-11T09:21:42.986Z,10.56
2018-12-11T09:24:23.123Z,11.03
2018-12-11T09:25:21.682Z,11.19
2018-12-11T09:26:20.231Z,11.21
2018-12-11T09:27:18.841Z,10.61
2018-12-11T09:28:17.381Z,10.7
2018-12-11T09:29:15.945Z,10.61
2018-12-11T09:30:14.508Z,10.66
2018-12-11T09:31:13.144Z,10.67
2018-12-11T09:32:12.018Z,10.4
2018-12-11T09:53:45.147Z,11.1
2018-12-11T09:54:43.926Z,11.18
2018-12-11T09:55:42.470Z,11.18
2018-12-11T09:56:41.047Z,10.99
2018-12-11T09:57:40.057Z,11.03
2018-12-11T09:58:38.568Z,10.84
2018-12-11T09:59:37.493Z,10.78
2018-12-11T10:00:36.136Z,10.67
2018-12-11T10:01:34.666Z,10.52
2018-12-11T10:02:33.196Z,10.56
2018-12-11T10:03:31.801Z,10.33
2018-12-11T10:04:30.308Z,10.33
2018-12-11T10:05:28.847Z,10.11
2018-12-11T10:06:27.407Z,10.36
2018-12-11T10:09:07.707Z,10.25
2018-12-11T10:10:06.318Z,10.33
2018-12-11T10:11:04.878Z,10.53
2018-12-11T10:12:03.575Z,10.4
2018-12-11T10:13:02.308Z,10.27
2018-12-11T10:14:00.863Z,10.34
2018-12-11T10:14:59.399Z,10.56
2018-12-11T10:15:57.934Z,10.99
2018-12-11T10:16:56.471Z,11.47
2018-12-11T10:20:36.489Z,11.19
2018-12-11T10:21:35.092Z,10.94
2018-12-11T10:22:33.828Z,10.88
2018-12-11T10:23:32.364Z,10.94
2018-12-11T10:24:30.987Z,11.35
2018-12-11T10:25:29.613Z,11.4
2018-12-11T10:26:28.199Z,11.67
2018-12-11T10:27:26.789Z,11.54
2018-12-11T10:28:25.300Z,11.47
2018-12-11T10:29:24.127Z,11.51
2018-12-11T10:31:32.075Z,11.58
2018-12-11T10:32:30.656Z,11.42
2018-12-11T10:33:29.158Z,11.24
2018-12-11T10:34:27.809Z,11.42
2018-12-11T10:35:26.335Z,11.6
2018-12-11T10:36:24.871Z,11.69
2018-12-11T10:37:23.592Z,11.82
2018-12-11T10:38:22.314Z,11.62
2018-12-11T10:39:20.835Z,11.82
2018-12-11T10:40:19.620Z,11.67
2018-12-11T10:41:18.372Z,11.65
2018-12-11T10:42:16.921Z,11.6
2018-12-11T10:43:15.534Z,11.54
2018-12-11T10:44:14.084Z,11.7
2018-12-11T10:45:12.623Z,11.47
2018-12-11T10:46:11.280Z,10.78
2018-12-11T10:47:10.129Z,10.66
2018-12-11T10:48:08.689Z,10.61
2018-12-11T10:49:07.364Z,10.45
2018-12-11T10:50:06.012Z,10.34
2018-12-11T10:51:04.529Z,10.34
2018-12-11T10:52:03.057Z,10.42
2018-12-11T10:53:01.977Z,10.53
2018-12-11T10:54:00.204Z,10.64
2018-12-11T10:54:58.757Z,10.56
2018-12-11T10:55:57.407Z,10.61
2018-12-11T10:56:56.204Z,10.81
2018-12-11T10:57:54.756Z,11.27
2018-12-11T10:58:53.418Z,11.6
2018-12-11T10:59:52.094Z,11.73
2018-12-11T11:00:50.641Z,11.75
2018-12-11T11:01:49.212Z,11.85
2018-12-11T11:02:47.867Z,11.7
2018-12-11T11:03:46.374Z,11.78
2018-12-11T11:07:24.981Z,11.76
2018-12-11T11:08:24.004Z,11.82
2018-12-11T11:09:22.606Z,11.75
2018-12-11T11:10:21.203Z,11.64
2018-12-11T11:11:19.728Z,11.46
2018-12-11T11:12:18.307Z,11.42
2018-12-11T11:13:16.839Z,11.58
2018-12-11T11:14:15.371Z,11.62
2018-12-11T11:15:13.954Z,11.73
2018-12-11T11:16:12.459Z,11.73
2018-12-11T11:17:10.984Z,11.54
2018-12-11T11:18:09.782Z,11.51
2018-12-11T11:19:08.421Z,11.44
2018-12-11T11:20:07.053Z,11.42
2018-12-11T11:21:05.766Z,11.32
2018-12-11T11:22:49.257Z,10.84
2018-12-11T11:23:47.876Z,10.92
2018-12-11T11:24:46.449Z,11
2018-12-11T11:25:44.974Z,10.97
2018-12-11T11:26:43.745Z,11.1
2018-12-11T11:27:42.396Z,11
2018-12-11T11:28:40.992Z,11.04
2018-12-11T11:29:39.649Z,10.96
2018-12-11T11:30:38.321Z,10.86
2018-12-11T11:31:36.855Z,10.85
2018-12-11T11:32:35.381Z,10.86
2018-12-11T11:33:33.986Z,10.84
2018-12-11T11:34:32.586Z,10.86
2018-12-11T11:35:31.350Z,10.84
2018-12-11T11:36:30.159Z,10.84
2018-12-11T11:37:28.743Z,10.84
2018-12-11T11:38:27.351Z,10.82
2018-12-11T11:39:26.008Z,10.85
2018-12-11T11:40:24.560Z,10.82
2018-12-11T11:41:23.080Z,10.96
2018-12-11T11:42:21.609Z,10.82
2018-12-11T11:43:20.144Z,10.73
2018-12-11T11:44:18.693Z,10.66
2018-12-11T11:45:17.328Z,10.55
2018-12-11T11:46:16.040Z,10.55
2018-12-11T11:47:14.570Z,10.66
2018-12-11T11:48:13.134Z,10.66
2018-12-11T11:49:11.986Z,10.73
2018-12-11T11:50:10.528Z,10.81
2018-12-11T11:51:09.069Z,10.81
2018-12-11T11:52:07.729Z,10.82
2018-12-11T11:53:06.287Z,10.88
2018-12-11T11:54:04.840Z,10.76
2018-12-11T11:55:03.525Z,10.7
2018-12-11T11:56:02.256Z,10.64
2018-12-11T11:57:00.811Z,10.63
2018-12-11T11:57:59.626Z,10.34
2018-12-11T11:58:58.333Z,10.4
2018-12-11T11:59:56.945Z,10.61
2018-12-11T12:00:55.469Z,10.67
2018-12-11T12:01:54.024Z,10.51
2018-12-11T12:02:52.576Z,10.55
2018-12-11T12:03:51.100Z,10.36
2018-12-11T12:04:49.870Z,10.51
2018-12-11T12:05:48.586Z,10.63
2018-12-11T12:08:28.970Z,10.6
2018-12-11T12:09:27.501Z,10.52
2018-12-11T12:12:08.003Z,10.48
2018-12-11T12:13:06.428Z,10.38
2018-12-11T12:14:04.962Z,10.29
2018-12-11T12:15:03.724Z,10.17
2018-12-11T12:16:02.251Z,10.14
2018-12-11T12:17:00.782Z,10.25
2018-12-11T12:17:59.401Z,10.3
2018-12-11T12:18:58.000Z,10.05
2018-12-11T12:19:56.536Z,10.02
2018-12-11T12:20:55.090Z,10.07
2018-12-11T12:21:53.646Z,10.12
2018-12-11T12:22:52.192Z,10.09
2018-12-11T12:23:50.757Z,10.01
2018-12-11T12:24:49.430Z,9.99
2018-12-11T12:25:48.242Z,9.89
2018-12-11T12:26:46.855Z,9.91
2018-12-11T12:27:45.525Z,9.86
2018-12-11T12:28:44.159Z,9.76
2018-12-11T12:40:32.353Z,9.96
2018-12-11T12:41:30.876Z,10.02
2018-12-11T12:42:29.592Z,10.07
2018-12-11T12:43:28.306Z,10.11
2018-12-11T12:44:26.889Z,9.96
2018-12-11T12:45:25.636Z,10.08
2018-12-11T12:46:24.277Z,9.99
2018-12-11T12:47:22.800Z,10.02
2018-12-11T12:48:21.317Z,10.11
2018-12-11T12:49:19.935Z,10.15
2018-12-11T12:50:18.493Z,10.33
2018-12-11T12:51:17.045Z,10.41
2018-12-11T12:52:15.743Z,10.52
2018-12-11T12:53:14.372Z,10.56
2018-12-11T12:54:12.911Z,10.61
2018-12-11T12:55:11.785Z,10.82
2018-12-11T12:56:10.358Z,10.71
2018-12-11T12:57:08.931Z,10.71
2018-12-11T12:58:07.460Z,10.44
2018-12-11T12:59:06.061Z,10.63
2018-12-11T13:00:04.607Z,10.51
2018-12-11T13:01:03.162Z,10.48
2018-12-11T13:02:01.681Z,10.36
2018-12-11T13:03:00.227Z,10.45
2018-12-11T13:03:58.755Z,10.6
2018-12-11T13:04:57.515Z,10.53
2018-12-11T13:05:56.306Z,10.29
2018-12-11T13:06:54.840Z,10.4
2018-12-11T13:07:53.549Z,10.38
2018-12-11T13:08:52.195Z,10.08
2018-12-11T13:09:50.845Z,10.08
2018-12-11T13:10:49.553Z,9.96
2018-12-11T13:11:48.244Z,9.87
2018-12-11T13:12:46.782Z,9.84
2018-12-11T13:13:45.642Z,9.87
2018-12-11T13:14:44.497Z,9.64
2018-12-11T13:15:43.074Z,9.5
2018-12-11T13:16:42.293Z,9.42
2018-12-11T13:17:40.824Z,9.26
2018-12-11T13:18:39.551Z,9.14
2018-12-11T13:19:38.193Z,8.96
2018-12-11T13:20:36.745Z,8.87
2018-12-11T13:21:35.283Z,8.8
2018-12-11T13:22:34.040Z,8.95
2018-12-11T13:23:32.557Z,9.02
2018-12-11T13:24:31.095Z,8.92
2018-12-11T13:25:29.800Z,8.83
2018-12-11T13:26:28.459Z,8.83
2018-12-11T13:27:26.992Z,8.89
2018-12-11T13:28:25.578Z,8.83
2018-12-11T13:29:24.102Z,8.89
2018-12-11T13:30:22.668Z,8.79
2018-12-11T13:31:21.370Z,8.66
2018-12-11T13:32:20.204Z,8.41
2018-12-11T13:33:18.787Z,8.58
2018-12-11T13:34:17.420Z,8.52
2018-12-11T13:35:16.035Z,8.56
2018-12-11T13:36:14.549Z,8.59
2018-12-11T13:37:13.098Z,8.5
2018-12-11T13:38:11.704Z,8.53
2018-12-11T13:39:10.252Z,8.55
2018-12-11T13:40:08.783Z,8.7
2018-12-11T13:41:07.451Z,8.63
2018-12-11T13:42:06.126Z,8.86
2018-12-11T13:43:04.654Z,8.83
2018-12-11T13:44:03.225Z,8.79
2018-12-11T13:45:02.052Z,8.71
2018-12-11T13:46:00.581Z,8.92
2018-12-11T13:46:59.160Z,9.01
2018-12-11T13:47:57.779Z,8.81
2018-12-11T13:48:57.049Z,8.83
2018-12-11T13:49:55.699Z,8.84
2018-12-11T13:50:54.328Z,8.71
2018-12-11T13:51:52.892Z,8.74
2018-12-11T13:52:51.464Z,8.86
2018-12-11T13:53:50.046Z,8.62
2018-12-11T13:54:48.600Z,8.65
2018-12-11T13:55:47.149Z,8.59
2018-12-11T13:56:45.784Z,8.76
2018-12-11T13:57:44.504Z,8.73
2018-12-11T13:58:43.046Z,8.53
2018-12-11T13:59:41.820Z,8.59
2018-12-11T14:00:40.452Z,8.56
2018-12-11T14:01:38.987Z,8.55
2018-12-11T14:02:37.549Z,8.45
2018-12-11T14:03:36.060Z,8.63
2018-12-11T14:04:34.623Z,8.7
2018-12-11T14:05:33.174Z,8.65
2018-12-11T14:06:31.761Z,8.53
2018-12-11T14:07:30.314Z,8.58
2018-12-11T14:08:28.849Z,8.53
2018-12-11T14:09:27.535Z,8.68
2018-12-11T14:10:26.317Z,8.71
2018-12-11T14:11:24.840Z,8.7
2018-12-11T14:12:23.519Z,8.77
2018-12-11T14:13:22.214Z,8.65
2018-12-11T14:14:20.780Z,8.59
2018-12-11T14:15:19.520Z,8.63
2018-12-11T14:16:18.192Z,8.61
2018-12-11T14:17:16.702Z,8.47
2018-12-11T14:18:15.519Z,8.33
2018-12-11T14:19:14.275Z,8.37
2018-12-11T14:20:12.924Z,8.34
2018-12-11T14:21:11.560Z,8.34
2018-12-11T14:22:10.181Z,8.34
2018-12-11T14:23:08.770Z,8.4
2018-12-11T14:24:07.634Z,8.52
2018-12-11T14:25:06.335Z,8.62
2018-12-11T14:26:04.859Z,8.48